Time;durP1;ratioP1;P1;durP2;ratioP2;P2;SDS_P1;SDS_P2;PMS_P1;PMS_P2;Temp;Humidity;BMP_temperature;BMP_pressure;BME280_temperature;BME280_humidity;BME280_pressure;Samples;Min_cycle;Max_cycle;Signal;HPM_P1;HPM_P2
2021/09/16 00:00:41;;;;;;;57.55;27.60;;;17.30;99.90;;;16.12;100.00;100774.81;4990065;28;20026;-77
2021/09/16 00:03:07;;;;;;;60.60;27.60;;;17.30;99.90;;;16.07;100.00;100780.44;4966145;28;20026;-78
2021/09/16 00:05:33;;;;;;;59.80;27.08;;;17.30;99.90;;;16.06;100.00;100796.47;4980093;28;20034;-76
2021/09/16 00:07:59;;;;;;;68.78;28.25;;;17.30;99.90;;;16.04;100.00;100790.41;4975541;28;21037;-77
2021/09/16 00:10:25;;;;;;;60.67;29.27;;;17.30;99.90;;;16.03;100.00;100797.53;4978868;28;20033;-77
2021/09/16 00:12:51;;;;;;;69.05;30.08;;;17.20;99.90;;;16.00;100.00;100797.72;4988355;28;20053;-77
2021/09/16 00:15:17;;;;;;;66.22;28.35;;;17.20;99.90;;;15.99;100.00;100807.50;4991436;28;20030;-77
2021/09/16 00:17:43;;;;;;;64.70;28.95;;;17.20;99.90;;;16.01;100.00;100815.38;4987089;28;20502;-76
2021/09/16 00:20:10;;;;;;;67.68;31.02;;;17.20;99.90;;;15.98;100.00;100827.06;4991636;28;20044;-77
2021/09/16 00:22:36;;;;;;;65.97;29.67;;;17.20;99.90;;;15.98;100.00;100840.34;4989087;28;20490;-77
2021/09/16 00:25:06;;;;;;;69.45;31.02;;;17.20;99.90;;;16.01;100.00;100835.78;4982803;28;20052;-77
2021/09/16 00:27:32;;;;;;;64.18;29.95;;;17.20;99.90;;;15.98;100.00;100836.81;4971553;28;20339;-76
2021/09/16 00:29:59;;;;;;;65.25;30.60;;;17.20;99.90;;;15.96;100.00;100834.28;4974306;28;20501;-77
2021/09/16 00:32:25;;;;;;;57.00;27.83;;;17.20;99.90;;;15.97;100.00;100835.97;4980914;28;20471;-78
2021/09/16 00:34:51;;;;;;;52.53;26.98;;;17.20;99.90;;;15.91;100.00;100819.59;4992662;28;20482;-77
2021/09/16 00:37:17;;;;;;;54.90;27.50;;;17.20;99.90;;;15.93;100.00;100812.38;4989333;28;20466;-77
2021/09/16 00:39:44;;;;;;;55.53;27.58;;;17.10;99.90;;;15.91;100.00;100798.38;4981129;28;20515;-76
2021/09/16 00:42:17;;;;;;;55.67;26.75;;;17.10;99.90;;;15.87;100.00;100789.75;4989698;28;20347;-77
2021/09/16 00:44:44;;;;;;;61.03;26.13;;;17.10;99.90;;;15.85;100.00;100807.59;4988575;28;20125;-78
2021/09/16 00:47:10;;;;;;;48.45;24.95;;;17.10;99.90;;;15.82;100.00;100791.03;4963937;28;20501;-77
2021/09/16 00:49:37;;;;;;;52.97;26.75;;;17.10;99.90;;;15.81;100.00;100784.00;4988439;28;20416;-77
2021/09/16 00:52:07;;;;;;;55.65;26.70;;;17.10;99.90;;;15.85;100.00;100788.16;4972718;28;20029;-77
2021/09/16 00:54:38;;;;;;;53.85;24.02;;;17.00;99.90;;;15.82;100.00;100777.75;4974242;28;20026;-77
2021/09/16 00:57:06;;;;;;;64.55;27.55;;;17.00;99.90;;;15.84;100.00;100781.16;4964517;28;20474;-76
2021/09/16 00:59:37;;;;;;;46.55;23.33;;;17.10;99.90;;;15.84;100.00;100775.84;4968757;28;20049;-76
2021/09/16 01:02:04;;;;;;;51.55;23.98;;;17.00;99.90;;;15.81;100.00;100773.38;4953739;28;20089;-76
2021/09/16 01:04:31;;;;;;;50.00;23.73;;;17.00;99.90;;;15.81;100.00;100760.09;4965481;28;20502;-77
2021/09/16 01:06:58;;;;;;;51.88;25.45;;;17.10;99.90;;;15.83;100.00;100764.38;4961981;28;20364;-78
2021/09/16 01:09:26;;;;;;;58.83;27.05;;;17.10;99.90;;;15.83;100.00;100970.59;4937301;28;20026;-78
2021/09/16 01:11:53;;;;;;;63.67;26.45;;;17.00;99.90;;;15.84;100.00;100924.53;4958264;28;20533;-79
2021/09/16 01:14:28;;;;;;;64.80;26.83;;;17.00;99.90;;;15.82;100.00;100910.50;4952734;28;20097;-77
2021/09/16 01:16:58;;;;;;;61.22;24.83;;;17.00;99.90;;;15.79;100.00;100896.47;4940900;28;20072;-76
2021/09/16 01:19:24;;;;;;;73.35;24.95;;;17.00;99.90;;;15.79;100.00;100901.78;4946429;28;21158;-76
2021/09/16 01:21:50;;;;;;;61.38;26.65;;;17.00;99.90;;;15.78;100.00;100910.69;4970321;28;20096;-76
2021/09/16 01:24:16;;;;;;;66.57;25.23;;;16.90;99.90;;;15.74;100.00;100905.69;4947707;28;20049;-76
2021/09/16 01:26:44;;;;;;;56.72;22.88;;;16.90;99.90;;;15.74;100.00;100900.38;4956667;28;20091;-76
2021/09/16 01:29:11;;;;;;;65.57;24.50;;;16.90;99.90;;;15.68;100.00;100887.47;4958290;28;20034;-76
2021/09/16 01:31:46;;;;;;;66.03;24.25;;;16.90;99.90;;;15.66;100.00;100889.38;4936069;28;20035;-76
2021/09/16 01:34:15;;;;;;;64.55;24.83;;;16.80;99.90;;;15.65;100.00;100893.00;4953219;28;20034;-76
2021/09/16 01:36:44;;;;;;;64.40;25.13;;;16.90;99.90;;;15.69;100.00;100905.97;4969929;28;20034;-76
2021/09/16 01:39:15;;;;;;;72.78;24.63;;;16.90;99.90;;;15.65;100.00;100914.22;4979822;28;20498;-76
2021/09/16 01:41:41;;;;;;;64.68;25.13;;;16.80;99.90;;;15.66;100.00;100908.81;4986624;28;20517;-76
2021/09/16 01:44:10;;;;;;;73.53;27.10;;;16.80;99.90;;;15.59;100.00;100899.53;5005582;28;20049;-76
2021/09/16 01:46:36;;;;;;;73.38;25.95;;;16.80;99.90;;;15.64;100.00;100913.38;4945491;28;20018;-77
2021/09/16 01:49:03;;;;;;;73.95;27.17;;;16.80;99.90;;;15.64;100.00;100910.72;4949469;28;20046;-76
2021/09/16 01:51:30;;;;;;;76.82;27.65;;;16.90;99.90;;;15.67;100.00;100920.28;4967105;28;20026;-76
2021/09/16 01:53:57;;;;;;;68.70;26.98;;;16.80;99.90;;;15.68;100.00;100924.63;4941632;28;20114;-76
2021/09/16 01:56:26;;;;;;;68.60;28.55;;;16.80;99.90;;;15.66;100.00;100924.75;4941876;28;20515;-76
2021/09/16 01:58:53;;;;;;;80.20;29.17;;;16.80;99.90;;;15.65;100.00;100932.81;4968334;28;20033;-76
2021/09/16 02:01:19;;;;;;;74.78;29.33;;;16.80;99.90;;;15.64;100.00;100925.81;4981217;28;20057;-76
2021/09/16 02:03:46;;;;;;;76.43;28.48;;;16.80;99.90;;;15.64;100.00;100931.97;4955238;28;20019;-76
2021/09/16 02:06:13;;;;;;;81.68;29.10;;;16.80;99.90;;;15.65;100.00;100930.16;4983291;28;20030;-76
2021/09/16 02:08:39;;;;;;;86.57;31.02;;;16.80;99.90;;;15.63;100.00;100935.56;4987116;28;20076;-76
2021/09/16 02:11:08;;;;;;;81.05;31.05;;;16.80;99.90;;;15.66;100.00;100961.91;4975685;28;20026;-76
2021/09/16 02:13:34;;;;;;;86.70;31.08;;;16.80;99.90;;;15.65;100.00;100940.75;4984831;28;20038;-75
2021/09/16 02:16:02;;;;;;;85.85;30.20;;;16.90;99.90;;;15.66;100.00;100946.00;4982830;28;20016;-76
2021/09/16 02:18:28;;;;;;;83.25;29.88;;;16.90;99.90;;;15.66;100.00;100943.34;4984392;28;20065;-76
2021/09/16 02:20:57;;;;;;;95.55;32.42;;;16.90;99.90;;;15.64;100.00;100929.31;4935884;28;20018;-76
2021/09/16 02:23:26;;;;;;;91.72;30.50;;;16.80;99.90;;;15.65;100.00;100925.69;4962843;28;20557;-76
2021/09/16 02:25:52;;;;;;;91.82;30.85;;;16.80;99.90;;;15.64;100.00;100931.97;4972916;28;20164;-76
2021/09/16 02:28:18;;;;;;;92.18;31.40;;;16.80;99.90;;;15.66;100.00;100931.84;4964602;28;20487;-75
2021/09/16 02:30:44;;;;;;;91.90;31.55;;;16.90;99.90;;;15.68;100.00;100937.91;4974181;28;20026;-76
2021/09/16 02:33:13;;;;;;;95.32;31.52;;;16.90;99.90;;;15.66;100.00;100943.34;4964277;28;20018;-76
2021/09/16 02:35:40;;;;;;;101.03;33.33;;;16.80;99.90;;;15.65;100.00;100946.91;4976546;28;20382;-76
2021/09/16 02:38:06;;;;;;;97.53;32.22;;;16.80;99.90;;;15.65;100.00;100957.53;4982603;28;20045;-76
2021/09/16 02:40:32;;;;;;;99.25;30.08;;;16.80;99.90;;;15.66;100.00;100967.22;4969236;28;22341;-76
2021/09/16 02:42:58;;;;;;;93.10;32.25;;;16.80;99.90;;;15.66;100.00;100948.63;4974649;28;20080;-76
2021/09/16 02:45:24;;;;;;;108.13;33.42;;;16.80;99.90;;;15.66;100.00;100948.63;4974737;28;20046;-76
2021/09/16 02:47:50;;;;;;;100.07;32.53;;;16.80;99.90;;;15.69;100.00;100953.75;4935685;28;20031;-76
2021/09/16 02:50:19;;;;;;;96.25;32.60;;;16.80;99.90;;;15.69;100.00;100948.44;4968799;28;20023;-76
2021/09/16 02:52:45;;;;;;;99.07;32.33;;;16.90;99.90;;;15.66;100.00;100927.41;4961370;28;20479;-76
2021/09/16 02:55:11;;;;;;;94.78;32.35;;;16.90;99.90;;;15.67;100.00;100929.09;4957239;28;20081;-75
2021/09/16 02:57:37;;;;;;;96.15;32.72;;;16.80;99.90;;;15.65;100.00;100915.06;4948362;28;20121;-75
2021/09/16 03:00:05;;;;;;;95.30;32.78;;;16.80;99.90;;;15.63;100.00;100903.69;4957877;28;20034;-76
2021/09/16 03:02:31;;;;;;;94.22;32.63;;;16.90;99.90;;;15.64;100.00;100872.72;4952972;28;20086;-76
2021/09/16 03:04:57;;;;;;;88.05;31.13;;;16.80;99.90;;;15.60;100.00;100842.88;4946626;28;20494;-75
2021/09/16 03:07:23;;;;;;;82.47;31.02;;;16.80;99.90;;;15.59;100.00;100815.47;4956311;28;20053;-75
2021/09/16 03:09:49;;;;;;;94.78;32.65;;;16.80;99.90;;;15.58;100.00;100799.66;4971634;28;20115;-75
2021/09/16 03:12:15;;;;;;;88.25;32.45;;;16.80;99.90;;;15.57;100.00;100784.66;4946343;28;20019;-76
2021/09/16 03:14:41;;;;;;;96.57;33.78;;;16.80;99.90;;;15.55;100.00;100775.94;4962286;28;20037;-76
2021/09/16 03:17:07;;;;;;;81.93;32.45;;;16.80;99.90;;;15.54;100.00;100771.63;4972420;28;20122;-76
2021/09/16 03:19:33;;;;;;;83.05;31.77;;;16.70;99.90;;;15.53;100.00;100764.63;4964469;28;20335;-75
2021/09/16 03:21:59;;;;;;;78.68;32.05;;;16.80;99.90;;;15.52;100.00;100760.25;4972323;28;20029;-75
2021/09/16 03:24:25;;;;;;;83.38;32.33;;;16.70;99.90;;;15.52;100.00;100776.16;4965562;28;20046;-76
2021/09/16 03:26:53;;;;;;;78.53;31.08;;;16.70;99.90;;;15.52;100.00;100774.34;4971339;28;20034;-76
2021/09/16 03:29:19;;;;;;;83.50;31.48;;;16.80;99.90;;;15.50;100.00;100792.19;4945192;28;20031;-76
2021/09/16 03:31:45;;;;;;;76.88;32.03;;;16.70;99.90;;;15.44;100.00;100784.63;4956302;28;20109;-76
2021/09/16 03:34:11;;;;;;;77.78;30.98;;;16.70;99.90;;;15.40;100.00;100783.16;4954251;28;20026;-75
2021/09/16 03:36:37;;;;;;;83.47;30.45;;;16.60;99.90;;;15.37;100.00;100776.22;4963727;28;20093;-76
2021/09/16 03:39:04;;;;;;;71.43;29.23;;;16.60;99.90;;;15.33;100.00;100764.13;4955140;28;20027;-75
2021/09/16 03:41:30;;;;;;;76.95;31.73;;;16.60;99.90;;;15.32;100.00;100759.75;4947592;28;20034;-75
2021/09/16 03:43:58;;;;;;;77.07;31.88;;;16.60;99.90;;;15.30;100.00;100766.97;4969050;28;20298;-75
2021/09/16 03:46:25;;;;;;;79.13;31.30;;;16.50;99.90;;;15.30;100.00;100766.97;4964392;28;20027;-75
2021/09/16 03:48:51;;;;;;;86.82;31.77;;;16.60;99.90;;;15.33;100.00;100772.09;4957282;28;20499;-76
2021/09/16 03:51:17;;;;;;;87.80;31.77;;;16.50;99.90;;;15.33;100.00;100779.19;4963533;28;20648;-76
2021/09/16 03:53:43;;;;;;;86.32;33.03;;;16.60;99.90;;;15.34;100.00;100786.22;4940348;28;20030;-75
2021/09/16 03:56:09;;;;;;;94.93;32.08;;;16.50;99.90;;;15.33;100.00;100777.41;4956383;28;20027;-76
2021/09/16 03:58:35;;;;;;;92.28;34.67;;;16.50;99.90;;;15.34;100.00;100771.13;4952059;28;20080;-75
2021/09/16 04:01:01;;;;;;;95.88;34.50;;;16.50;99.90;;;15.35;100.00;100796.69;4973575;28;20044;-76
2021/09/16 04:03:26;;;;;;;106.28;34.80;;;16.50;99.90;;;15.33;100.00;100777.41;4963673;28;20026;-75
2021/09/16 04:05:52;;;;;;;96.53;33.55;;;16.50;99.90;;;15.33;100.00;100766.78;4978475;28;20042;-76
2021/09/16 04:08:18;;;;;;;100.53;35.38;;;16.50;99.90;;;15.33;100.00;100795.97;4976388;28;20018;-75
2021/09/16 04:10:45;;;;;;;94.97;34.33;;;16.50;99.90;;;15.34;100.00;100778.25;4987545;28;20456;-76
2021/09/16 04:13:11;;;;;;;102.25;33.95;;;16.50;99.90;;;15.32;100.00;100786.28;4991151;28;20409;-75
2021/09/16 04:15:37;;;;;;;92.22;33.38;;;16.50;99.90;;;15.31;100.00;100778.44;4990294;28;20022;-75
2021/09/16 04:18:03;;;;;;;84.13;31.42;;;16.50;99.90;;;15.30;100.00;100768.78;4974350;28;20052;-76
2021/09/16 04:20:29;;;;;;;88.57;30.30;;;16.50;99.90;;;15.26;100.00;100761.97;4981861;28;20473;-76
2021/09/16 04:22:55;;;;;;;75.15;28.80;;;16.50;99.90;;;15.25;100.00;100761.13;4989016;28;20053;-76
2021/09/16 04:25:21;;;;;;;76.15;29.10;;;16.50;99.90;;;15.24;100.00;100758.56;4990081;28;20038;-75
2021/09/16 04:27:48;;;;;;;75.28;28.08;;;16.50;99.90;;;15.22;100.00;100753.34;4972895;28;20026;-75
2021/09/16 04:30:14;;;;;;;68.63;28.25;;;16.40;99.90;;;15.22;100.00;100771.94;4982684;28;20078;-75
2021/09/16 04:32:42;;;;;;;77.72;29.02;;;16.40;99.90;;;15.24;100.00;100772.69;4980760;28;20034;-76
2021/09/16 04:35:10;;;;;;;72.95;28.40;;;16.40;99.90;;;15.24;100.00;100758.56;4955903;28;20026;-76
2021/09/16 04:37:36;;;;;;;73.22;29.27;;;16.40;99.90;;;15.22;100.00;100757.81;5000279;28;20437;-75
2021/09/16 04:40:04;;;;;;;80.82;29.92;;;16.40;99.90;;;15.22;100.00;100755.16;4980892;28;20044;-76
2021/09/16 04:42:31;;;;;;;88.90;30.40;;;16.40;99.90;;;15.22;100.00;100748.06;4988084;28;20168;-75
2021/09/16 04:44:57;;;;;;;81.30;30.85;;;16.40;99.90;;;15.22;100.00;100745.41;4978202;28;20050;-75
2021/09/16 04:47:23;;;;;;;83.53;29.73;;;16.40;99.90;;;15.22;100.00;100742.75;4973515;28;20027;-75
2021/09/16 04:49:49;;;;;;;69.97;27.88;;;16.40;99.90;;;15.21;100.00;100759.63;4982777;28;20034;-75
2021/09/16 04:52:15;;;;;;;72.55;27.60;;;16.40;99.90;;;15.22;100.00;100758.66;4967963;28;20494;-76
2021/09/16 04:54:41;;;;;;;69.32;26.75;;;16.40;99.90;;;15.21;100.00;100754.31;4971712;28;20033;-75
2021/09/16 04:57:08;;;;;;;64.40;26.13;;;16.40;99.90;;;15.19;100.00;100750.91;4986865;28;20022;-76
2021/09/16 04:59:34;;;;;;;58.45;24.95;;;16.40;99.90;;;15.20;100.00;100749.94;4990410;28;20030;-75
2021/09/16 05:02:00;;;;;;;56.50;24.38;;;16.40;99.90;;;15.20;100.00;100751.75;4972565;28;20034;-75
2021/09/16 05:04:26;;;;;;;58.72;23.67;;;16.40;99.90;;;15.20;100.00;100743.81;4963550;28;20076;-75
2021/09/16 05:06:52;;;;;;;56.88;22.52;;;16.40;99.90;;;15.18;100.00;100743.91;4979181;28;20022;-76
2021/09/16 05:09:18;;;;;;;49.05;21.85;;;16.40;99.90;;;15.16;100.00;100730.75;4986901;28;20394;-75
2021/09/16 05:11:46;;;;;;;61.13;22.58;;;16.30;99.90;;;15.17;100.00;100726.28;4981145;28;20106;-75
2021/09/16 05:14:12;;;;;;;52.88;22.80;;;16.30;99.90;;;15.20;100.00;100728.72;4972980;28;20026;-75
2021/09/16 05:16:39;;;;;;;58.28;23.00;;;16.40;99.90;;;15.19;100.00;100724.41;4989137;28;20455;-75
2021/09/16 05:19:05;;;;;;;52.13;21.80;;;16.30;99.90;;;15.18;100.00;100725.34;4983321;28;20046;-75
2021/09/16 05:21:31;;;;;;;47.22;20.00;;;16.40;99.90;;;15.16;100.00;100738.72;4937106;28;20027;-75
2021/09/16 05:23:57;;;;;;;42.35;18.95;;;16.40;99.90;;;15.18;100.00;100743.91;4964391;28;20113;-75
2021/09/16 05:26:23;;;;;;;37.10;18.70;;;16.30;99.90;;;15.17;100.00;100744.88;4950131;28;20022;-75
2021/09/16 05:28:49;;;;;;;39.78;17.45;;;16.30;99.90;;;15.19;100.00;100742.97;4982151;28;20121;-75
2021/09/16 05:31:15;;;;;;;35.75;16.35;;;16.40;99.90;;;15.20;100.00;100754.41;4977687;28;20109;-75
2021/09/16 05:33:41;;;;;;;35.38;16.98;;;16.40;99.90;;;15.19;100.00;100742.97;4983799;28;20029;-75
2021/09/16 05:36:07;;;;;;;37.72;16.80;;;16.40;99.90;;;15.22;100.00;100749.88;4991192;28;20241;-75
2021/09/16 05:38:33;;;;;;;37.40;16.52;;;16.40;99.90;;;15.22;100.00;100744.56;4985353;28;20026;-75
2021/09/16 05:40:59;;;;;;;36.47;15.48;;;16.40;99.90;;;15.22;100.00;100748.06;4976677;28;20034;-75
2021/09/16 05:43:25;;;;;;;32.08;15.05;;;16.40;99.90;;;15.24;100.00;100746.16;4989317;28;20413;-75
2021/09/16 05:45:52;;;;;;;30.50;13.40;;;16.40;99.90;;;15.24;100.00;100745.31;4958010;28;20102;-75
2021/09/16 05:48:20;;;;;;;24.92;13.05;;;16.40;99.90;;;15.27;100.00;100753.06;4966595;28;20023;-75
2021/09/16 05:50:47;;;;;;;32.20;12.02;;;16.40;99.90;;;15.27;100.00;100751.28;4966372;28;20082;-75
2021/09/16 05:53:13;;;;;;;23.60;10.95;;;16.40;99.90;;;15.32;100.00;100749.16;4996659;28;20050;-75
2021/09/16 05:55:42;;;;;;;29.02;12.00;;;16.50;99.90;;;15.33;100.00;100748.22;4988341;28;20438;-75
2021/09/16 05:58:08;;;;;;;23.90;10.63;;;16.50;99.90;;;15.38;100.00;100747.91;4983858;28;20022;-75
2021/09/16 06:00:34;;;;;;;21.75;9.50;;;16.60;99.90;;;15.41;100.00;100770.72;4977314;28;20038;-75
2021/09/16 06:03:00;;;;;;;19.02;8.80;;;16.50;99.90;;;15.44;100.00;100762.56;4991609;28;20490;-75
2021/09/16 06:05:26;;;;;;;16.30;8.07;;;16.60;99.90;;;15.46;100.00;100760.66;4961019;28;20066;-75
2021/09/16 06:07:52;;;;;;;16.52;8.45;;;16.60;99.90;;;15.50;100.00;100765.66;4994008;28;20034;-75
2021/09/16 06:10:18;;;;;;;29.77;9.10;;;16.60;99.90;;;15.51;100.00;100753.25;4973398;28;20035;-75
2021/09/16 06:12:44;;;;;;;20.27;8.05;;;16.60;99.90;;;15.55;100.00;100755.59;4965414;28;20023;-75
2021/09/16 06:15:11;;;;;;;20.35;7.35;;;16.70;99.90;;;15.56;100.00;100749.31;4965154;28;20023;-75
2021/09/16 06:17:37;;;;;;;14.88;6.55;;;16.70;99.90;;;15.63;100.00;100751.56;4957296;28;20034;-75
2021/09/16 06:20:06;;;;;;;18.08;7.43;;;16.80;99.90;;;15.71;100.00;100768.72;4955691;28;20754;-75
2021/09/16 06:22:32;;;;;;;14.20;5.68;;;16.80;99.90;;;15.78;100.00;100777.09;4964675;28;20110;-75
2021/09/16 06:24:58;;;;;;;10.32;5.05;;;16.90;99.90;;;15.85;100.00;100786.34;4972912;28;20038;-75
2021/09/16 06:27:24;;;;;;;12.05;5.28;;;16.90;99.90;;;15.88;100.00;100790.63;4955918;28;20046;-75
2021/09/16 06:29:50;;;;;;;12.77;5.47;;;17.00;99.90;;;15.87;100.00;100775.63;4947758;28;20041;-75
2021/09/16 06:32:17;;;;;;;14.82;5.05;;;17.00;99.90;;;15.89;100.00;100785.19;4976548;28;20043;-75
2021/09/16 06:34:42;;;;;;;7.53;4.80;;;17.00;99.90;;;15.91;100.00;100790.41;4975089;28;20089;-75
2021/09/16 06:37:08;;;;;;;10.50;5.40;;;17.00;99.90;;;15.94;100.00;100776.94;4969555;28;20499;-75
2021/09/16 06:39:37;;;;;;;8.93;4.75;;;17.10;99.90;;;16.00;100.00;100787.09;4973851;28;20088;-75
2021/09/16 06:42:03;;;;;;;13.88;4.75;;;17.10;99.90;;;16.11;100.00;100800.53;4970711;28;20380;-75
2021/09/16 06:44:29;;;;;;;12.77;5.00;;;17.20;99.90;;;16.13;100.00;100788.00;4957650;28;20146;-75
2021/09/16 06:46:55;;;;;;;9.10;4.00;;;17.20;99.90;;;16.11;100.00;100768.66;4958797;28;20439;-75
2021/09/16 06:49:21;;;;;;;14.25;5.07;;;17.20;99.90;;;16.07;100.00;100788.41;4974879;28;20023;-75
2021/09/16 06:51:48;;;;;;;8.18;4.35;;;17.10;99.90;;;16.00;100.00;100768.53;4975697;28;20181;-75
2021/09/16 06:54:14;;;;;;;10.07;4.05;;;17.10;99.90;;;15.92;100.00;100760.25;4991170;28;20022;-75
2021/09/16 06:56:40;;;;;;;10.73;4.55;;;17.00;99.90;;;15.90;100.00;100765.66;4973010;28;20030;-75
2021/09/16 06:59:06;;;;;;;10.38;4.25;;;17.10;99.90;;;15.92;100.00;100779.69;4955668;28;20023;-75
2021/09/16 07:01:33;;;;;;;11.32;4.20;;;17.00;99.90;;;15.85;100.00;100756.28;4971804;28;20526;-75
2021/09/16 07:03:59;;;;;;;17.58;4.00;;;17.00;99.90;;;15.85;100.00;100751.00;4972152;28;20123;-75
2021/09/16 07:06:27;;;;;;;7.32;3.85;;;17.00;99.90;;;15.83;100.00;100750.25;4955248;28;20053;-75
2021/09/16 07:08:53;;;;;;;11.02;3.92;;;17.00;99.90;;;15.88;100.00;100770.22;4956663;28;20338;-75
2021/09/16 07:11:20;;;;;;;14.73;4.25;;;17.00;99.90;;;15.86;100.00;100765.97;4971801;28;20034;-75
2021/09/16 07:13:46;;;;;;;8.98;3.95;;;17.00;99.90;;;15.83;100.00;100758.19;4956366;28;20023;-75
2021/09/16 07:16:12;;;;;;;8.20;3.70;;;16.90;99.90;;;15.83;100.00;100752.91;4962261;28;20034;-75
2021/09/16 07:18:38;;;;;;;8.90;3.70;;;17.00;99.90;;;15.85;100.00;100753.63;4962433;28;20054;-75
2021/09/16 07:21:04;;;;;;;16.52;4.30;;;17.00;99.90;;;15.91;100.00;100759.38;4964392;28;20034;-75
2021/09/16 07:23:30;;;;;;;11.38;3.90;;;17.00;99.90;;;15.95;100.00;100783.94;4957526;28;20454;-75
2021/09/16 07:25:56;;;;;;;8.68;3.65;;;17.10;99.90;;;16.02;100.00;100771.06;4960007;28;20125;-75
2021/09/16 07:28:22;;;;;;;11.15;3.53;;;17.20;99.90;;;16.12;100.00;100769.50;4992683;28;20038;-75
2021/09/16 07:30:48;;;;;;;9.45;3.40;;;17.30;99.90;;;16.20;100.00;100751.22;4966925;28;20029;-75
2021/09/16 07:33:14;;;;;;;13.13;3.13;;;17.40;99.90;;;16.34;100.00;100745.78;4964469;28;20034;-74
2021/09/16 07:35:40;;;;;;;7.55;3.42;;;17.40;99.90;;;16.35;100.00;100744.00;4980636;28;20022;-75
2021/09/16 07:38:06;;;;;;;10.40;3.22;;;17.40;99.90;;;16.29;100.00;100731.97;4954355;28;20034;-75
2021/09/16 07:40:32;;;;;;;16.05;3.13;;;17.40;99.90;;;16.27;100.00;100733.88;4966595;28;20045;-75
2021/09/16 07:42:59;;;;;;;8.27;2.47;;;17.40;99.90;;;16.33;100.00;100751.22;4946921;28;20106;-75
2021/09/16 07:45:25;;;;;;;9.40;3.03;;;17.40;99.90;;;16.40;100.00;100732.06;4962424;28;20034;-74
2021/09/16 07:47:51;;;;;;;6.25;2.95;;;17.50;99.90;;;16.48;100.00;100739.50;4955348;28;20049;-75
2021/09/16 07:50:21;;;;;;;8.52;3.35;;;17.60;99.90;;;16.56;100.00;100736.28;4972439;28;20035;-74
2021/09/16 07:52:47;;;;;;;13.98;3.60;;;17.60;99.90;;;16.58;100.00;100735.19;4969983;28;20033;-74
2021/09/16 07:55:13;;;;;;;8.10;3.63;;;17.70;99.90;;;16.66;100.00;100736.47;4982079;28;20022;-74
2021/09/16 07:57:40;;;;;;;12.77;2.88;;;17.70;99.90;;;16.66;100.00;100742.63;4959033;28;20070;-75
2021/09/16 08:00:07;;;;;;;8.23;3.50;;;17.70;99.90;;;16.72;100.00;100752.84;4993085;28;20570;-75
2021/09/16 08:02:32;;;;;;;5.10;2.35;;;17.80;99.90;;;16.76;100.00;100761.44;4990939;28;20030;-74
2021/09/16 08:04:58;;;;;;;8.50;2.55;;;17.80;99.90;;;16.73;100.00;100814.84;4962859;28;20092;-74
2021/09/16 08:07:24;;;;;;;8.57;2.65;;;17.80;99.90;;;16.82;100.00;100827.50;4967794;28;21183;-75
2021/09/16 08:09:50;;;;;;;10.68;2.78;;;17.80;99.90;;;16.75;100.00;100802.28;4972039;28;20375;-75
2021/09/16 08:12:16;;;;;;;9.00;2.80;;;17.80;99.90;;;16.75;100.00;100864.28;4992356;28;20022;-74
2021/09/16 08:14:42;;;;;;;15.23;2.85;;;17.80;99.90;;;16.76;100.00;100843.84;4973474;28;20534;-74
2021/09/16 08:17:08;;;;;;;8.48;2.88;;;17.80;99.90;;;16.79;100.00;100830.34;4983380;28;20453;-74
2021/09/16 08:19:39;;;;;;;4.60;2.53;;;17.90;99.90;;;16.99;100.00;100866.19;4955040;28;20553;-75
2021/09/16 08:22:05;;;;;;;9.55;2.58;;;18.10;99.90;;;17.10;100.00;100850.31;4964263;28;20081;-74
2021/09/16 08:24:31;;;;;;;4.18;2.58;;;18.20;99.90;;;17.27;100.00;100849.09;4974260;28;20054;-75
2021/09/16 08:26:57;;;;;;;4.53;2.63;;;18.30;99.90;;;17.34;100.00;100842.38;4990424;28;20572;-75
2021/09/16 08:29:23;;;;;;;4.75;2.50;;;18.40;99.90;;;17.30;100.00;100837.38;4966909;28;20457;-75
2021/09/16 08:31:51;;;;;;;7.68;2.20;;;18.50;99.90;;;17.24;100.00;100809.41;4955115;28;20038;-74
2021/09/16 08:34:17;;;;;;;6.55;2.20;;;18.40;99.90;;;17.22;100.00;100800.69;4944158;28;20025;-74
2021/09/16 08:36:43;;;;;;;9.25;2.60;;;18.30;99.90;;;17.08;100.00;100791.03;4982914;28;20022;-74
2021/09/16 08:39:09;;;;;;;5.78;2.35;;;18.20;99.90;;;16.96;100.00;100795.44;4973027;28;20037;-74
2021/09/16 08:41:37;;;;;;;6.38;3.28;;;17.90;99.90;;;16.73;100.00;100761.66;4988120;28;20030;-74
2021/09/16 08:44:04;;;;;;;6.10;3.30;;;17.70;99.90;;;16.67;100.00;100752.31;4966494;28;20029;-74
2021/09/16 08:46:30;;;;;;;6.80;3.67;;;17.70;99.90;;;16.72;100.00;100757.31;4987853;28;20021;-74
2021/09/16 08:48:56;;;;;;;10.57;3.78;;;17.70;99.90;;;16.72;100.00;100758.16;4989172;28;20033;-74
2021/09/16 08:51:23;;;;;;;14.10;4.47;;;17.70;99.90;;;16.66;100.00;100745.31;4974170;28;20097;-74
2021/09/16 08:53:53;;;;;;;11.40;4.43;;;17.70;99.90;;;16.65;100.00;100745.41;4969064;28;20081;-74
2021/09/16 08:56:20;;;;;;;7.53;4.43;;;17.70;99.90;;;16.68;100.00;100745.19;4959306;28;21184;-74
2021/09/16 08:58:47;;;;;;;8.93;4.43;;;17.70;99.90;;;16.72;100.00;100746.69;4979761;28;20022;-74
2021/09/16 09:01:30;;;;;;;11.05;4.47;;;17.70;99.90;;;16.64;100.00;100725.94;4967534;28;20727;-74
2021/09/16 09:04:02;;;;;;;8.10;4.28;;;17.80;99.90;;;16.75;100.00;100741.13;4925610;28;20042;-74
2021/09/16 09:06:44;;;;;;;12.00;4.35;;;17.80;99.90;;;16.78;100.00;100747.09;4941502;28;20038;-74
2021/09/16 09:09:36;;;;;;;12.50;4.35;;;17.90;99.90;;;16.90;100.00;100752.50;4924552;28;20481;-74
2021/09/16 09:12:23;;;;;;;6.70;4.40;;;17.90;99.90;;;16.89;99.54;100730.38;4926763;28;20030;-74
2021/09/16 09:15:13;;;;;;;9.25;4.30;;;17.90;99.90;;;17.01;99.59;100734.78;4923659;28;20054;-74
2021/09/16 09:18:19;;;;;;;9.82;3.60;;;18.10;99.90;;;17.13;99.05;100724.22;4918828;28;20042;-74
2021/09/16 09:21:18;;;;;;;5.82;3.20;;;18.20;99.90;;;17.40;97.57;100743.41;4962036;28;20092;-74
2021/09/16 09:24:09;;;;;;;9.98;3.70;;;18.60;99.90;;;17.87;96.37;100767.47;4948684;28;20128;-74
2021/09/16 09:26:58;;;;;;;5.90;3.22;;;18.70;99.90;;;18.01;94.16;100769.91;4949868;28;20048;-74
2021/09/16 09:30:18;;;;;;;8.43;3.65;;;19.10;99.90;;;18.33;94.43;100768.38;4939026;28;20601;-74
2021/09/16 09:33:16;;;;;;;8.02;3.45;;;19.20;99.90;;;18.16;93.28;100741.25;4928706;28;20049;-74
2021/09/16 09:36:11;;;;;;;8.15;3.00;;;18.80;99.90;;;17.75;94.37;100729.28;4944431;28;20026;-74
2021/09/16 09:39:25;;;;;;;5.97;2.83;;;18.70;99.90;;;17.86;94.14;100714.28;4941065;28;20034;-74
2021/09/16 09:42:50;;;;;;;6.47;2.83;;;18.80;99.90;;;17.91;91.63;100693.50;4931039;28;20395;-74
2021/09/16 09:46:13;;;;;;;3.45;1.98;;;18.90;99.90;;;18.14;90.78;101301.91;4941330;28;20113;-74
2021/09/16 09:49:17;;;;;;;6.25;2.30;;;19.20;99.90;;;18.45;90.02;101119.34;4929092;28;20046;-74
2021/09/16 09:52:56;;;;;;;6.80;1.75;;;19.20;99.90;;;18.26;90.35;101055.84;4931587;28;20088;-74
2021/09/16 09:56:29;;;;;;;2.80;1.48;;;19.30;99.90;;;18.42;89.11;101018.22;4938151;28;20034;-74
2021/09/16 09:59:52;;;;;;;3.97;1.40;;;19.00;99.90;;;17.90;89.04;100953.66;4950476;28;20127;-74
2021/09/16 10:03:46;;;;;;;6.88;1.38;;;18.90;99.90;;;18.07;91.94;100979.06;4930865;28;20092;-74
2021/09/16 10:07:42;;;;;;;1.80;1.15;;;19.20;99.90;;;18.48;90.77;100977.78;4921303;28;20056;-74
2021/09/16 10:11:47;;;;;;;5.32;1.98;;;19.40;99.90;;;18.56;91.00;100967.38;4929658;28;20081;-74